createdAt,value
2023-04-15T00:02:23.049Z,62.47
2023-04-15T00:04:51.117Z,62.47
2023-04-15T00:07:19.086Z,62.51
2023-04-15T00:09:47.064Z,62.52
2023-04-15T00:12:14.969Z,62.60
2023-04-15T00:14:42.895Z,62.63
2023-04-15T00:17:10.861Z,62.69
2023-04-15T00:19:38.752Z,62.62
2023-04-15T00:22:07.191Z,62.78
2023-04-15T00:24:35.170Z,62.82
2023-04-15T00:27:03.767Z,62.84
2023-04-15T00:29:32.371Z,62.90
2023-04-15T00:32:00.375Z,62.82
2023-04-15T00:34:29.025Z,62.88
2023-04-15T00:36:57.335Z,62.84
2023-04-15T00:39:25.251Z,62.86
2023-04-15T00:41:54.390Z,62.84
2023-04-15T00:44:22.401Z,62.93
2023-04-15T00:46:54.337Z,62.90
2023-04-15T00:49:23.187Z,63.09
2023-04-15T00:51:51.655Z,63.12
2023-04-15T00:54:19.640Z,63.22
2023-04-15T00:56:47.573Z,63.18
2023-04-15T00:59:16.849Z,63.11
2023-04-15T01:01:45.399Z,63.15
2023-04-15T01:04:14.179Z,63.25
2023-04-15T01:06:42.496Z,63.24
2023-04-15T01:09:11.960Z,63.40
2023-04-15T01:11:40.618Z,63.54
2023-04-15T01:14:11.028Z,63.60
2023-04-15T01:16:40.007Z,63.64
2023-04-15T01:19:10.835Z,63.67
2023-04-15T01:21:39.972Z,63.75
2023-04-15T01:24:10.595Z,63.74
2023-04-15T01:26:39.933Z,63.66
2023-04-15T01:29:09.735Z,63.60
2023-04-15T01:31:37.861Z,63.50
2023-04-15T01:34:06.466Z,63.49
2023-04-15T01:36:34.555Z,63.46
2023-04-15T01:39:02.807Z,63.48
2023-04-15T01:41:30.972Z,63.50
2023-04-15T01:43:58.829Z,63.67
2023-04-15T01:46:27.065Z,63.74
2023-04-15T01:48:55.066Z,63.91
2023-04-15T01:51:23.319Z,63.87
2023-04-15T01:53:52.504Z,63.88
2023-04-15T01:56:20.404Z,63.94
2023-04-15T01:58:48.536Z,64.02
2023-04-15T02:01:19.771Z,64.12
2023-04-15T02:03:48.386Z,64.12
2023-04-15T02:06:16.701Z,64.13
2023-04-15T02:08:44.468Z,64.03
2023-04-15T02:11:12.628Z,63.97
2023-04-15T02:13:40.782Z,63.91
2023-04-15T02:16:21.561Z,64.21
2023-04-15T02:18:49.569Z,64.18
2023-04-15T02:21:19.042Z,64.28
2023-04-15T02:23:48.410Z,64.34
2023-04-15T02:26:16.329Z,64.38
2023-04-15T02:28:44.230Z,64.34
2023-04-15T02:31:16.056Z,64.45
2023-04-15T02:33:44.055Z,64.49
2023-04-15T02:36:12.659Z,64.45
2023-04-15T02:38:42.453Z,64.33
2023-04-15T02:41:52.034Z,64.40
2023-04-15T02:44:20.703Z,64.55
2023-04-15T02:46:52.623Z,64.49
2023-04-15T02:49:21.778Z,64.60
2023-04-15T02:51:49.997Z,64.63
2023-04-15T02:54:26.033Z,64.63
2023-04-15T02:56:55.463Z,64.49
2023-04-15T02:59:23.646Z,64.39
2023-04-15T03:01:51.791Z,64.29
2023-04-15T03:04:19.812Z,64.05
2023-04-15T03:06:48.011Z,63.75
2023-04-15T03:09:15.939Z,63.41
2023-04-15T03:11:44.499Z,63.18
2023-04-15T03:14:12.464Z,62.99
2023-04-15T03:16:43.135Z,62.79
2023-04-15T03:19:11.036Z,61.97
2023-04-15T03:21:39.934Z,61.86
2023-04-15T03:24:07.841Z,62.01
2023-04-15T03:26:35.790Z,61.80
2023-04-15T03:29:08.887Z,61.78
2023-04-15T03:31:36.837Z,61.75
2023-04-15T03:34:04.638Z,61.49
2023-04-15T03:36:35.670Z,61.16
2023-04-15T03:39:04.473Z,60.94
2023-04-15T03:41:33.149Z,61.00
2023-04-15T03:44:01.257Z,61.17
2023-04-15T03:46:29.273Z,61.13
2023-04-15T03:48:57.183Z,61.16
2023-04-15T03:51:25.105Z,61.23
2023-04-15T03:53:53.021Z,60.90
2023-04-15T03:56:21.080Z,60.95
2023-04-15T03:58:49.016Z,60.87
2023-04-15T04:01:16.979Z,61.01
2023-04-15T04:03:45.068Z,60.77
2023-04-15T04:06:13.152Z,60.71
2023-04-15T04:08:41.549Z,60.86
2023-04-15T04:11:09.721Z,61.00
2023-04-15T04:13:37.585Z,60.78
2023-04-15T04:16:05.886Z,60.79
2023-04-15T04:18:34.112Z,60.62
2023-04-15T04:21:02.314Z,60.56
2023-04-15T04:23:30.579Z,60.56
2023-04-15T04:25:58.527Z,60.45
2023-04-15T04:28:26.447Z,60.48
2023-04-15T04:30:54.510Z,60.41
2023-04-15T04:33:22.593Z,60.44
2023-04-15T04:35:50.614Z,60.36
2023-04-15T04:38:18.991Z,60.40
2023-04-15T04:40:46.940Z,60.50
2023-04-15T04:43:16.113Z,60.40
2023-04-15T04:45:44.068Z,60.20
2023-04-15T04:48:12.109Z,60.35
2023-04-15T04:50:40.082Z,60.21
2023-04-15T04:53:08.224Z,60.13
2023-04-15T04:55:38.879Z,60.01
2023-04-15T04:58:07.098Z,60.04
2023-04-15T05:00:35.164Z,60.03
2023-04-15T05:03:03.294Z,60.18
2023-04-15T05:05:31.576Z,60.31
2023-04-15T05:07:59.426Z,60.41
2023-04-15T05:10:27.402Z,60.52
2023-04-15T05:12:55.479Z,60.50
2023-04-15T05:15:23.402Z,60.54
2023-04-15T05:17:51.712Z,60.35
2023-04-15T05:20:20.057Z,60.36
2023-04-15T05:22:47.987Z,60.38
2023-04-15T05:25:16.580Z,60.23
2023-04-15T05:27:44.509Z,60.16
2023-04-15T05:30:13.847Z,59.85
2023-04-15T05:32:41.987Z,59.77
2023-04-15T05:35:09.897Z,59.66
2023-04-15T05:37:37.922Z,59.76
2023-04-15T05:40:06.437Z,59.74
2023-04-15T05:42:35.708Z,59.83
2023-04-15T05:45:09.249Z,59.94
2023-04-15T05:47:37.844Z,59.89
2023-04-15T05:50:06.809Z,59.90
2023-04-15T05:52:34.880Z,59.80
2023-04-15T05:55:02.969Z,59.98
2023-04-15T05:57:31.162Z,59.85
2023-04-15T05:59:59.127Z,59.89
2023-04-15T06:02:28.132Z,59.99
2023-04-15T06:04:56.106Z,59.96
2023-04-15T06:07:24.381Z,59.94
2023-04-15T06:09:52.334Z,59.81
2023-04-15T06:12:20.443Z,59.88
2023-04-15T06:14:48.869Z,59.70
2023-04-15T06:17:18.642Z,59.54
2023-04-15T06:19:47.045Z,59.45
2023-04-15T06:22:14.969Z,59.50
2023-04-15T06:24:43.014Z,59.48
2023-04-15T06:27:11.545Z,59.66
2023-04-15T06:29:39.728Z,59.66
2023-04-15T06:32:07.899Z,59.82
2023-04-15T06:34:35.858Z,59.49
2023-04-15T06:37:05.773Z,59.18
2023-04-15T06:39:34.545Z,58.97
2023-04-15T06:42:03.680Z,58.40
2023-04-15T06:44:33.798Z,58.19
2023-04-15T06:47:02.408Z,57.81
2023-04-15T06:49:30.306Z,57.24
2023-04-15T06:51:58.154Z,56.63
2023-04-15T06:54:26.707Z,55.96
2023-04-15T06:56:54.713Z,55.23
2023-04-15T06:59:22.581Z,55.30
2023-04-15T07:01:50.656Z,55.32
2023-04-15T07:04:18.796Z,55.50
2023-04-15T07:06:46.830Z,55.54
2023-04-15T07:09:15.489Z,55.10
2023-04-15T07:11:43.414Z,54.17
2023-04-15T07:14:11.730Z,53.82
2023-04-15T07:16:39.680Z,53.23
2023-04-15T07:19:07.541Z,53.22
2023-04-15T07:21:35.553Z,52.76
2023-04-15T07:24:03.378Z,52.42
2023-04-15T07:26:31.356Z,52.48
2023-04-15T07:28:59.511Z,52.25
2023-04-15T07:31:27.886Z,51.48
2023-04-15T07:33:55.836Z,51.01
2023-04-15T07:36:24.221Z,50.68
2023-04-15T07:38:52.730Z,50.69
2023-04-15T07:41:21.217Z,50.21
2023-04-15T07:43:49.151Z,49.70
2023-04-15T07:46:17.113Z,49.49
2023-04-15T07:48:45.005Z,48.94
2023-04-15T07:51:13.237Z,48.20
2023-04-15T07:53:41.144Z,47.53
2023-04-15T07:56:09.090Z,47.37
2023-04-15T07:58:37.433Z,47.38
2023-04-15T08:01:05.642Z,45.92
2023-04-15T08:03:33.895Z,44.93
2023-04-15T08:06:02.562Z,44.00
2023-04-15T08:08:30.648Z,43.35
2023-04-15T08:10:59.106Z,42.81
2023-04-15T08:13:27.530Z,42.69
2023-04-15T08:16:14.736Z,42.15
2023-04-15T08:18:42.700Z,41.68
2023-04-15T08:21:11.855Z,41.93
2023-04-15T08:23:40.125Z,41.62
2023-04-15T08:26:08.958Z,41.46
2023-04-15T08:28:39.728Z,41.20
2023-04-15T08:31:08.075Z,39.08
2023-04-15T08:33:36.458Z,39.25
2023-04-15T08:36:04.891Z,39.13
2023-04-15T08:38:32.795Z,38.62
2023-04-15T08:41:07.498Z,38.01
2023-04-15T08:43:38.318Z,36.54
2023-04-15T08:46:06.513Z,35.86
2023-04-15T08:48:36.022Z,36.42
2023-04-15T08:51:05.217Z,36.91
2023-04-15T08:53:33.791Z,35.19
2023-04-15T08:56:07.783Z,35.35
2023-04-15T08:58:37.222Z,34.93
2023-04-15T09:01:05.247Z,34.95
2023-04-15T09:03:33.749Z,35.56
2023-04-15T09:06:05.007Z,35.34
2023-04-15T09:08:34.775Z,35.09
2023-04-15T09:11:05.845Z,34.33
2023-04-15T09:13:33.947Z,33.36
2023-04-15T09:16:04.495Z,32.64
2023-04-15T09:18:34.804Z,32.74
2023-04-15T09:21:11.495Z,32.72
2023-04-15T09:23:41.986Z,32.42
2023-04-15T09:26:10.009Z,32.93
2023-04-15T09:28:44.040Z,32.21
2023-04-15T09:31:12.240Z,32.19
2023-04-15T09:33:57.152Z,32.61
2023-04-15T09:36:29.950Z,31.74
2023-04-15T09:38:59.579Z,31.37
2023-04-15T09:41:28.687Z,31.03
2023-04-15T09:43:56.749Z,31.12
2023-04-15T09:46:44.727Z,30.29
2023-04-15T09:49:13.595Z,30.59
2023-04-15T09:51:44.807Z,30.13
2023-04-15T09:54:22.497Z,29.56
2023-04-15T09:56:50.458Z,29.85
2023-04-15T09:59:20.126Z,30.23
2023-04-15T10:01:49.342Z,30.08
2023-04-15T10:04:18.236Z,29.90
2023-04-15T10:06:46.839Z,30.55
2023-04-15T10:09:14.718Z,31.02
2023-04-15T10:11:43.211Z,30.45
2023-04-15T10:14:13.850Z,30.46
2023-04-15T10:16:49.044Z,30.41
2023-04-15T10:19:23.038Z,29.76
2023-04-15T10:21:52.410Z,29.73
2023-04-15T10:24:21.155Z,28.88
2023-04-15T10:26:50.055Z,28.70
2023-04-15T10:29:18.625Z,27.57
2023-04-15T10:31:47.245Z,27.75
2023-04-15T10:34:16.439Z,27.43
2023-04-15T10:36:44.431Z,26.61
2023-04-15T10:39:34.594Z,27.21
2023-04-15T10:42:20.264Z,27.55
2023-04-15T10:44:57.115Z,28.34
2023-04-15T10:47:25.693Z,28.71
2023-04-15T10:50:02.611Z,29.21
2023-04-15T10:52:30.627Z,29.91
2023-04-15T10:55:14.844Z,30.16
2023-04-15T10:57:45.347Z,30.04
2023-04-15T11:00:14.984Z,30.00
2023-04-15T11:03:14.109Z,30.79
2023-04-15T11:05:42.666Z,31.24
2023-04-15T11:08:12.392Z,31.53
2023-04-15T11:10:40.414Z,31.67
2023-04-15T11:13:11.420Z,32.75
2023-04-15T11:15:43.049Z,33.70
2023-04-15T11:18:11.018Z,34.43
2023-04-15T11:20:41.637Z,34.99
2023-04-15T11:23:14.024Z,35.49
2023-04-15T11:25:44.145Z,36.09
2023-04-15T11:28:13.558Z,36.08
2023-04-15T11:30:42.492Z,36.06
2023-04-15T11:33:12.577Z,35.99
2023-04-15T11:35:44.215Z,36.28
2023-04-15T11:38:14.283Z,36.26
2023-04-15T11:40:46.197Z,36.52
2023-04-15T11:43:20.346Z,36.67
2023-04-15T11:45:56.997Z,36.61
2023-04-15T11:48:33.118Z,37.33
2023-04-15T11:51:06.586Z,37.58
2023-04-15T11:53:44.533Z,37.66
2023-04-15T11:56:19.691Z,37.83
2023-04-15T11:58:50.790Z,37.89
2023-04-15T12:01:19.526Z,38.09
2023-04-15T12:03:50.276Z,37.93
2023-04-15T12:06:19.720Z,37.74
2023-04-15T12:09:15.516Z,37.45
2023-04-15T12:11:44.984Z,36.71
2023-04-15T12:14:15.787Z,36.07
2023-04-15T12:16:51.812Z,36.02
2023-04-15T12:19:26.601Z,35.93
2023-04-15T12:22:02.142Z,36.11
2023-04-15T12:24:36.010Z,36.11
2023-04-15T12:27:06.214Z,36.42
2023-04-15T12:29:36.586Z,36.16
2023-04-15T12:32:15.914Z,35.81
2023-04-15T12:34:49.362Z,35.97
2023-04-15T12:37:17.879Z,36.04
2023-04-15T12:39:49.091Z,35.93
2023-04-15T12:42:18.624Z,35.91
2023-04-15T12:44:47.090Z,35.82
2023-04-15T12:47:15.091Z,36.00
2023-04-15T12:49:43.265Z,36.06
2023-04-15T12:52:11.332Z,35.73
2023-04-15T12:54:39.459Z,35.93
2023-04-15T12:57:07.869Z,36.43
2023-04-15T12:59:36.586Z,35.18
2023-04-15T13:02:04.761Z,33.79
2023-04-15T13:04:32.921Z,34.07
2023-04-15T13:07:02.252Z,33.80
2023-04-15T13:09:31.145Z,33.33
2023-04-15T13:11:59.437Z,32.84
2023-04-15T13:14:27.275Z,32.77
2023-04-15T13:16:55.222Z,32.82
2023-04-15T13:19:23.080Z,32.52
2023-04-15T13:21:51.297Z,32.57
2023-04-15T13:24:19.215Z,31.99
2023-04-15T13:26:48.586Z,32.66
2023-04-15T13:29:18.168Z,32.48
2023-04-15T13:31:46.350Z,32.75
2023-04-15T13:34:14.361Z,31.79
2023-04-15T13:36:42.240Z,31.38
2023-04-15T13:39:10.126Z,31.45
2023-04-15T13:41:38.169Z,31.41
2023-04-15T13:44:06.606Z,31.55
2023-04-15T13:46:35.094Z,31.67
2023-04-15T13:49:03.138Z,31.99
2023-04-15T13:51:32.228Z,32.02
2023-04-15T13:54:00.189Z,32.27
2023-04-15T13:56:28.999Z,32.77
2023-04-15T13:59:02.409Z,33.18
2023-04-15T14:01:30.387Z,33.32
2023-04-15T14:03:58.448Z,33.53
2023-04-15T14:06:35.915Z,33.12
2023-04-15T14:09:21.079Z,32.40
2023-04-15T14:12:03.177Z,32.40
2023-04-15T14:14:31.258Z,32.97
2023-04-15T14:16:59.336Z,33.02
2023-04-15T14:19:27.415Z,33.25
2023-04-15T14:21:55.534Z,33.44
2023-04-15T14:24:23.629Z,33.52
2023-04-15T14:26:51.834Z,33.76
2023-04-15T14:29:20.281Z,33.93
2023-04-15T14:32:04.147Z,33.88
2023-04-15T14:34:38.152Z,33.89
2023-04-15T14:37:06.405Z,34.18
2023-04-15T14:39:34.751Z,34.32
2023-04-15T14:42:02.714Z,34.64
2023-04-15T14:46:59.697Z,35.15
2023-04-15T14:49:27.869Z,35.34
2023-04-15T14:51:55.768Z,35.55
2023-04-15T14:54:23.616Z,35.50
2023-04-15T14:56:51.613Z,35.73
2023-04-15T14:59:19.482Z,35.85
2023-04-15T15:01:47.590Z,35.89
2023-04-15T15:04:15.917Z,36.08
2023-04-15T15:06:43.945Z,36.13
2023-04-15T15:09:11.791Z,36.23
2023-04-15T15:11:39.746Z,36.35
2023-04-15T15:14:07.667Z,36.47
2023-04-15T15:16:35.837Z,36.35
2023-04-15T15:19:04.504Z,36.57
2023-04-15T15:21:32.699Z,36.52
2023-04-15T15:24:00.630Z,36.30
2023-04-15T15:26:28.994Z,36.35
2023-04-15T15:28:57.085Z,36.45
2023-04-15T15:31:25.149Z,36.37
2023-04-15T15:33:53.307Z,36.58
2023-04-15T15:36:21.296Z,36.67
2023-04-15T15:38:49.268Z,36.79
2023-04-15T15:41:17.170Z,36.74
2023-04-15T15:43:45.056Z,36.65
2023-04-15T15:46:13.120Z,36.66
2023-04-15T15:48:41.065Z,36.64
2023-04-15T15:51:08.930Z,36.67
2023-04-15T15:53:37.089Z,36.51
2023-04-15T15:56:05.516Z,36.64
2023-04-15T15:58:33.821Z,36.78
2023-04-15T16:01:02.022Z,36.67
2023-04-15T16:03:30.225Z,36.58
2023-04-15T16:05:58.237Z,36.47
2023-04-15T16:08:26.677Z,36.63
2023-04-15T16:10:54.991Z,36.62
2023-04-15T16:13:23.106Z,36.65
2023-04-15T16:15:51.155Z,36.58
2023-04-15T16:18:19.140Z,36.77
2023-04-15T16:20:47.207Z,36.79
2023-04-15T16:23:17.244Z,36.76
2023-04-15T16:25:45.812Z,36.77
2023-04-15T16:28:25.558Z,36.84
2023-04-15T16:30:55.606Z,36.93
2023-04-15T16:33:23.509Z,37.00
2023-04-15T16:35:51.711Z,37.09
2023-04-15T16:38:19.675Z,37.08
2023-04-15T16:40:47.614Z,37.29
2023-04-15T16:43:15.587Z,37.39
2023-04-15T16:45:45.618Z,37.52
2023-04-15T16:48:13.731Z,37.80
2023-04-15T16:50:41.644Z,38.11
2023-04-15T16:53:09.856Z,38.08
2023-04-15T16:55:37.889Z,38.08
2023-04-15T16:58:07.969Z,38.15
2023-04-15T17:00:37.074Z,38.18
2023-04-15T17:03:06.152Z,38.44
2023-04-15T17:05:34.552Z,38.66
2023-04-15T17:08:02.695Z,38.72
2023-04-15T17:10:31.354Z,38.79
2023-04-15T17:13:00.059Z,40.33
2023-04-15T17:15:28.086Z,41.88
2023-04-15T17:17:56.241Z,43.75
2023-04-15T17:20:24.384Z,45.13
2023-04-15T17:22:52.460Z,45.80
2023-04-15T17:25:21.032Z,46.30
2023-04-15T17:27:49.291Z,47.19
2023-04-15T17:30:17.269Z,47.97
2023-04-15T17:32:45.390Z,48.91
2023-04-15T17:35:13.519Z,49.54
2023-04-15T17:37:41.516Z,50.03
2023-04-15T17:40:09.912Z,50.68
2023-04-15T17:42:38.012Z,50.80
2023-04-15T17:45:06.581Z,51.21
2023-04-15T17:47:34.933Z,52.19
2023-04-15T17:50:03.104Z,52.74
2023-04-15T17:52:31.256Z,53.54
2023-04-15T17:54:59.546Z,54.85
2023-04-15T17:57:27.686Z,55.71
2023-04-15T17:59:55.844Z,56.74
2023-04-15T18:02:24.074Z,57.00
2023-04-15T18:04:52.694Z,57.86
2023-04-15T18:07:21.017Z,58.19
2023-04-15T18:09:50.799Z,58.19
2023-04-15T18:12:18.867Z,58.60
2023-04-15T18:14:46.816Z,59.79
2023-04-15T18:17:15.144Z,59.90
2023-04-15T18:19:43.627Z,60.12
2023-04-15T18:22:12.109Z,60.52
2023-04-15T18:24:40.553Z,60.98
2023-04-15T18:27:08.748Z,60.23
2023-04-15T18:29:36.797Z,59.97
2023-04-15T18:32:05.112Z,59.70
2023-04-15T18:34:33.188Z,59.81
2023-04-15T18:37:01.508Z,59.50
2023-04-15T18:39:29.493Z,59.07
2023-04-15T18:41:57.686Z,59.02
2023-04-15T18:44:25.766Z,58.99
2023-04-15T18:46:54.363Z,59.08
2023-04-15T18:49:22.356Z,59.08
2023-04-15T18:51:50.642Z,58.86
2023-04-15T18:54:18.507Z,58.71
2023-04-15T18:56:46.837Z,58.65
2023-04-15T18:59:28.792Z,58.46
2023-04-15T19:02:00.288Z,58.56
2023-04-15T19:04:31.028Z,58.53
2023-04-15T19:06:59.346Z,58.48
2023-04-15T19:09:29.036Z,58.32
2023-04-15T19:11:57.776Z,58.25
2023-04-15T19:14:26.213Z,58.35
2023-04-15T19:16:54.280Z,58.53
2023-04-15T19:19:22.311Z,58.68
2023-04-15T19:21:50.777Z,59.14
2023-04-15T19:24:19.930Z,58.98
2023-04-15T19:26:50.480Z,58.91
2023-04-15T19:29:18.824Z,59.02
2023-04-15T19:31:46.882Z,59.02
2023-04-15T19:34:14.800Z,59.06
2023-04-15T19:36:42.978Z,59.01
2023-04-15T19:39:11.236Z,59.16
2023-04-15T19:41:39.399Z,59.20
2023-04-15T19:44:07.388Z,59.29
2023-04-15T19:46:35.802Z,59.42
2023-04-15T19:49:04.238Z,59.59
2023-04-15T19:51:37.623Z,59.90
2023-04-15T19:54:06.085Z,59.94
2023-04-15T19:56:34.549Z,60.06
2023-04-15T19:59:02.816Z,60.11
2023-04-15T20:01:31.096Z,60.27
2023-04-15T20:03:59.758Z,60.27
2023-04-15T20:06:28.525Z,60.48
2023-04-15T20:08:56.477Z,60.81
2023-04-15T20:12:05.677Z,61.11
2023-04-15T20:14:17.880Z,61.31
2023-04-15T20:16:45.853Z,61.37
2023-04-15T20:19:13.975Z,61.44
2023-04-15T20:21:45.997Z,61.29
2023-04-15T20:24:13.845Z,61.19
2023-04-15T20:26:41.892Z,61.16
2023-04-15T20:29:09.744Z,61.05
2023-04-15T20:31:37.889Z,61.17
2023-04-15T20:34:06.002Z,61.14
2023-04-15T20:36:34.016Z,61.32
2023-04-15T20:39:01.916Z,61.44
2023-04-15T20:41:29.946Z,61.50
2023-04-15T20:43:57.947Z,61.51
2023-04-15T20:46:27.603Z,61.53
2023-04-15T20:48:56.332Z,61.37
2023-04-15T20:51:24.301Z,61.43
2023-04-15T20:53:52.404Z,61.29
2023-04-15T20:56:20.453Z,61.25
2023-04-15T20:58:48.379Z,61.26
2023-04-15T21:01:16.353Z,61.30
2023-04-15T21:03:44.364Z,61.42
2023-04-15T21:06:12.465Z,61.55
2023-04-15T21:08:40.511Z,61.52
2023-04-15T21:11:08.516Z,61.49
2023-04-15T21:13:36.351Z,61.60
2023-04-15T21:16:04.452Z,61.52
2023-04-15T21:18:32.329Z,61.58
2023-04-15T21:21:02.063Z,61.70
2023-04-15T21:23:30.739Z,61.77
2023-04-15T21:25:58.910Z,61.98
2023-04-15T21:28:28.147Z,62.01
2023-04-15T21:30:59.570Z,62.13
2023-04-15T21:33:27.548Z,62.06
2023-04-15T21:35:55.454Z,62.12
2023-04-15T21:38:23.599Z,62.04
2023-04-15T21:40:51.693Z,62.03
2023-04-15T21:43:21.757Z,62.07
2023-04-15T21:46:20.698Z,62.00
2023-04-15T21:48:37.655Z,62.11
2023-04-15T21:51:06.041Z,62.02
2023-04-15T21:53:34.185Z,62.10
2023-04-15T21:56:02.120Z,61.98
2023-04-15T21:58:29.989Z,62.02
2023-04-15T22:01:00.192Z,62.01
2023-04-15T22:03:34.407Z,62.17
2023-04-15T22:06:04.363Z,62.27
2023-04-15T22:08:38.671Z,62.18
2023-04-15T22:11:26.422Z,62.28
2023-04-15T22:13:54.845Z,62.31
2023-04-15T22:16:23.178Z,62.26
2023-04-15T22:18:51.444Z,62.26
2023-04-15T22:21:19.362Z,62.20
2023-04-15T22:23:48.476Z,62.24
2023-04-15T22:26:16.425Z,62.27
2023-04-15T22:28:44.451Z,62.21
2023-04-15T22:31:12.511Z,62.13
2023-04-15T22:33:40.738Z,62.27
2023-04-15T22:36:08.848Z,62.35
2023-04-15T22:38:36.703Z,62.41
2023-04-15T22:41:04.715Z,62.78
2023-04-15T22:43:32.615Z,62.85
2023-04-15T22:46:01.227Z,62.94
2023-04-15T22:48:29.106Z,63.05
2023-04-15T22:50:57.148Z,63.21
2023-04-15T22:53:25.100Z,63.23
2023-04-15T22:55:54.116Z,63.39
2023-04-15T22:58:22.078Z,63.59
2023-04-15T23:00:50.415Z,63.76
2023-04-15T23:03:18.470Z,64.16
2023-04-15T23:05:47.055Z,64.31
2023-04-15T23:08:15.581Z,64.44
2023-04-15T23:10:44.762Z,64.39
2023-04-15T23:13:12.681Z,64.42
2023-04-15T23:15:40.680Z,64.85
2023-04-15T23:18:08.677Z,64.81
2023-04-15T23:20:36.691Z,64.87
2023-04-15T23:23:04.583Z,64.74
2023-04-15T23:25:32.629Z,64.82
2023-04-15T23:28:01.081Z,64.77
2023-04-15T23:30:29.100Z,64.60
2023-04-15T23:32:58.342Z,64.59
2023-04-15T23:35:27.366Z,64.68
2023-04-15T23:37:55.329Z,64.84
2023-04-15T23:40:23.160Z,64.93
2023-04-15T23:42:51.859Z,64.92
2023-04-15T23:45:19.914Z,64.95
2023-04-15T23:47:47.925Z,64.85
2023-04-15T23:50:16.148Z,64.85
2023-04-15T23:52:44.129Z,64.87
2023-04-15T23:55:12.121Z,64.78
2023-04-15T23:57:41.277Z,64.72
